createdAt,value
2023-04-01T00:01:40.575Z,10.00
2023-04-01T00:07:34.944Z,9.90
2023-04-01T00:13:29.448Z,9.80
2023-04-01T00:19:47.918Z,9.80
2023-04-01T00:26:06.496Z,9.80
2023-04-01T00:32:01.088Z,9.80
2023-04-01T00:38:07.824Z,9.80
2023-04-01T00:44:28.601Z,9.80
2023-04-01T00:50:48.348Z,9.70
2023-04-01T00:56:44.285Z,9.70
2023-04-01T01:02:38.991Z,9.60
2023-04-01T01:09:11.691Z,9.50
2023-04-01T01:15:48.972Z,9.60
2023-04-01T01:21:47.581Z,9.50
2023-04-01T01:27:42.654Z,9.50
2023-04-01T01:34:12.516Z,9.50
2023-04-01T01:40:31.210Z,9.50
2023-04-01T01:46:37.669Z,9.40
2023-04-01T01:52:32.386Z,9.50
2023-04-01T01:58:55.870Z,9.50
2023-04-01T02:05:18.389Z,9.50
2023-04-01T02:11:13.373Z,9.50
2023-04-01T02:17:12.282Z,9.50
2023-04-01T02:23:30.784Z,9.50
2023-04-01T02:29:49.194Z,9.50
2023-04-01T02:35:43.746Z,9.40
2023-04-01T02:41:50.545Z,9.40
2023-04-01T02:48:09.150Z,9.30
2023-04-01T02:54:27.541Z,9.30
2023-04-01T03:00:22.139Z,9.30
2023-04-01T03:06:16.904Z,9.30
2023-04-01T03:12:35.416Z,9.30
2023-04-01T03:18:55.149Z,9.30
2023-04-01T03:24:50.438Z,9.30
2023-04-01T03:30:44.935Z,9.30
2023-04-01T03:37:03.417Z,9.30
2023-04-01T03:43:22.432Z,9.30
2023-04-01T03:49:28.889Z,9.30
2023-04-01T03:55:23.360Z,9.30
2023-04-01T04:01:42.007Z,9.40
2023-04-01T04:08:00.394Z,9.30
2023-04-01T04:13:56.509Z,9.30
2023-04-01T04:19:51.680Z,9.30
2023-04-01T04:26:12.201Z,9.30
2023-04-01T04:32:31.292Z,9.30
2023-04-01T04:38:25.932Z,9.30
2023-04-01T04:44:32.457Z,9.20
2023-04-01T04:50:52.365Z,9.30
2023-04-01T04:57:11.153Z,9.20
2023-04-01T05:03:05.631Z,9.20
2023-04-01T05:09:00.128Z,9.20
2023-04-01T05:15:18.728Z,9.20
2023-04-01T05:21:37.128Z,9.20
2023-04-01T05:27:34.377Z,9.10
2023-04-01T05:33:28.918Z,9.10
2023-04-01T05:39:47.395Z,9.10
2023-04-01T05:46:05.900Z,9.10
2023-04-01T05:52:12.434Z,9.00
2023-04-01T05:58:07.018Z,9.00
2023-04-01T06:04:26.413Z,9.00
2023-04-01T06:10:54.094Z,8.90
2023-04-01T06:16:51.387Z,9.00
2023-04-01T06:23:07.750Z,8.90
2023-04-01T06:29:48.041Z,8.90
2023-04-01T06:36:16.292Z,9.00
2023-04-01T06:42:16.518Z,9.00
2023-04-01T06:48:44.274Z,9.00
2023-04-01T06:55:18.633Z,9.00
2023-04-01T07:01:38.761Z,9.00
2023-04-01T07:07:43.052Z,9.00
2023-04-01T07:13:47.603Z,9.00
2023-04-01T07:20:14.546Z,9.10
2023-04-01T07:26:32.516Z,9.20
2023-04-01T07:32:35.965Z,9.10
2023-04-01T07:38:07.178Z,9.10
2023-04-01T07:43:37.312Z,9.10
2023-04-01T07:49:40.156Z,9.10
2023-04-01T07:55:35.953Z,9.10
2023-04-01T08:00:54.451Z,9.10
2023-04-01T08:07:26.605Z,9.10
2023-04-01T08:13:36.418Z,9.10
2023-04-01T08:19:51.533Z,9.10
2023-04-01T08:26:42.244Z,9.00
2023-04-01T08:33:01.678Z,9.00
2023-04-01T08:39:11.697Z,9.00
2023-04-01T08:45:21.120Z,9.00
2023-04-01T08:52:19.140Z,9.00
2023-04-01T08:58:47.705Z,9.10
2023-04-01T09:04:45.360Z,9.20
2023-04-01T09:10:57.513Z,9.20
2023-04-01T09:17:41.231Z,9.20
2023-04-01T09:24:20.756Z,9.40
2023-04-01T09:30:21.171Z,9.30
2023-04-01T09:36:35.729Z,9.20
2023-04-01T09:43:02.222Z,9.30
2023-04-01T09:49:26.612Z,9.20
2023-04-01T09:55:21.102Z,9.20
2023-04-01T10:01:46.363Z,9.30
2023-04-01T10:08:10.728Z,9.30
2023-04-01T10:14:47.730Z,9.40
2023-04-01T10:20:45.216Z,9.50
2023-04-01T10:27:01.372Z,9.60
2023-04-01T10:33:25.464Z,9.60
2023-04-01T10:40:02.563Z,9.50
2023-04-01T10:46:09.084Z,9.60
2023-04-01T10:52:28.996Z,9.50
2023-04-01T10:59:29.898Z,9.40
2023-04-01T11:06:11.841Z,9.40
2023-04-01T11:12:10.569Z,9.50
2023-04-01T11:18:42.658Z,9.30
2023-04-01T11:25:17.870Z,9.30
2023-04-01T11:31:38.193Z,9.40
2023-04-01T11:36:40.011Z,9.40
2023-04-01T11:39:13.590Z,9.30
2023-04-01T11:42:22.064Z,9.40
2023-04-01T11:46:24.295Z,9.40
2023-04-01T11:50:51.629Z,9.40
2023-04-01T11:54:30.684Z,9.50
2023-04-01T11:58:01.272Z,9.50
2023-04-01T12:01:22.049Z,9.50
2023-04-01T12:06:32.590Z,9.50
2023-04-01T12:09:44.764Z,9.40
2023-04-01T12:16:28.293Z,9.40
2023-04-01T12:22:55.816Z,9.50
2023-04-01T12:29:06.102Z,9.50
2023-04-01T12:33:44.994Z,9.50
2023-04-01T12:40:21.491Z,9.50
2023-04-01T12:46:23.368Z,9.40
2023-04-01T12:52:17.815Z,9.40
2023-04-01T12:58:28.794Z,9.30
2023-04-01T13:03:47.231Z,9.40
2023-04-01T13:09:52.020Z,9.40
2023-04-01T13:16:12.805Z,9.40
2023-04-01T13:22:13.195Z,9.20
2023-04-01T13:27:35.335Z,9.20
2023-04-01T13:34:12.571Z,9.10
2023-04-01T13:40:46.791Z,9.00
2023-04-01T13:47:22.497Z,9.00
2023-04-01T13:53:26.085Z,9.00
2023-04-01T13:57:56.069Z,9.00
2023-04-01T14:04:31.637Z,9.10
2023-04-01T14:10:37.985Z,9.30
2023-04-01T14:17:00.803Z,9.20
2023-04-01T14:23:39.458Z,9.30
2023-04-01T14:30:06.801Z,9.20
2023-04-01T14:36:03.969Z,9.30
2023-04-01T14:42:34.704Z,9.20
2023-04-01T14:49:02.047Z,9.20
2023-04-01T14:55:32.595Z,9.30
2023-04-01T15:01:33.357Z,9.20
2023-04-01T15:07:43.890Z,9.20
2023-04-01T15:14:20.863Z,9.20
2023-04-01T15:21:02.456Z,9.20
2023-04-01T15:27:15.199Z,9.10
2023-04-01T15:33:28.768Z,9.20
2023-04-01T15:39:52.790Z,9.10
2023-04-01T15:46:14.259Z,9.30
2023-04-01T15:52:23.666Z,9.30
2023-04-01T15:58:18.158Z,9.30
2023-04-01T16:05:04.264Z,9.30
2023-04-01T16:11:34.944Z,9.30
2023-04-01T16:17:44.701Z,9.20
2023-04-01T16:23:51.524Z,9.20
2023-04-01T16:29:35.156Z,9.10
2023-04-01T16:36:16.434Z,9.10
2023-04-01T16:42:21.189Z,9.10
2023-04-01T16:48:51.676Z,9.00
2023-04-01T16:55:17.534Z,9.00
2023-04-01T17:01:11.863Z,8.90
2023-04-01T17:06:25.373Z,8.90
2023-04-01T17:13:15.782Z,8.80
2023-04-01T17:19:06.681Z,8.70
2023-04-01T17:25:40.547Z,8.70
2023-04-01T17:31:41.586Z,8.70
2023-04-01T17:37:42.109Z,8.70
2023-04-01T17:44:20.361Z,8.60
2023-04-01T17:50:48.121Z,8.70
2023-04-01T17:57:04.078Z,8.60
2023-04-01T18:03:34.215Z,8.60
2023-04-01T18:10:05.115Z,8.60
2023-04-01T18:16:42.281Z,8.60
2023-04-01T18:22:46.720Z,8.60
2023-04-01T18:28:54.622Z,8.60
2023-04-01T18:35:30.353Z,8.70
2023-04-01T18:42:03.069Z,8.60
2023-04-01T18:48:12.466Z,8.60
2023-04-01T18:54:33.491Z,8.60
2023-04-01T19:01:14.375Z,8.60
2023-04-01T19:07:38.339Z,8.60
2023-04-01T19:13:44.600Z,8.60
2023-04-01T19:19:53.172Z,8.50
2023-04-01T19:26:41.805Z,8.60
2023-04-01T19:33:21.900Z,8.70
2023-04-01T19:39:28.648Z,8.60
2023-04-01T19:45:39.370Z,8.50
2023-04-01T19:52:06.723Z,8.50
2023-04-01T19:57:37.013Z,8.60
2023-04-01T20:03:53.517Z,8.50
2023-04-01T20:10:28.962Z,8.50
2023-04-01T20:16:47.414Z,8.40
2023-04-01T20:23:01.979Z,8.50
2023-04-01T20:29:13.579Z,8.50
2023-04-01T20:36:09.748Z,8.50
2023-04-01T20:42:47.215Z,8.50
2023-04-01T20:48:44.576Z,8.40
2023-04-01T20:54:48.213Z,8.40
2023-04-01T21:01:32.053Z,8.40
2023-04-01T21:07:50.875Z,8.30
2023-04-01T21:13:54.108Z,8.40
2023-04-01T21:20:07.496Z,8.40
2023-04-01T21:26:40.149Z,8.40
2023-04-01T21:33:08.638Z,8.50
2023-04-01T21:39:08.437Z,8.40
2023-04-01T21:45:14.181Z,8.30
2023-04-01T21:52:07.551Z,8.40
2023-04-01T21:58:26.221Z,8.40
2023-04-01T22:04:25.413Z,8.40
2023-04-01T22:09:11.317Z,8.40
2023-04-01T22:16:11.014Z,8.30
2023-04-01T22:22:36.968Z,8.40
2023-04-01T22:28:34.172Z,8.30
2023-04-01T22:34:49.812Z,8.40
2023-04-01T22:41:40.255Z,8.40
2023-04-01T22:48:11.085Z,8.30
2023-04-01T22:54:07.117Z,8.30
2023-04-01T23:00:36.992Z,8.30
2023-04-01T23:07:26.385Z,8.30
2023-04-01T23:13:57.685Z,8.40
2023-04-01T23:20:06.940Z,8.30
2023-04-01T23:26:04.198Z,8.30
2023-04-01T23:32:27.310Z,8.30
2023-04-01T23:38:47.986Z,8.30
2023-04-01T23:46:33.690Z,8.20
2023-04-01T23:52:40.769Z,8.20
2023-04-01T23:59:02.718Z,8.20
